sensor_id;sensor_type;location;lat;lon;timestamp;P1;durP1;ratioP1;P2;durP2;ratioP2
71503;SDS011;59323;50.874;7.028;2024-02-04T00:00:21;5.97;;;2.33;;
71503;SDS011;59323;50.874;7.028;2024-02-04T00:02:49;6.80;;;2.80;;
71503;SDS011;59323;50.874;7.028;2024-02-04T00:05:15;8.67;;;3.03;;
71503;SDS011;59323;50.874;7.028;2024-02-04T00:08:48;6.47;;;3.05;;
71503;SDS011;59323;50.874;7.028;2024-02-04T00:12:33;7.03;;;3.33;;
71503;SDS011;59323;50.874;7.028;2024-02-04T00:27:24;9.18;;;3.85;;
71503;SDS011;59323;50.874;7.028;2024-02-04T00:29:50;10.57;;;3.93;;
71503;SDS011;59323;50.874;7.028;2024-02-04T00:32:15;8.43;;;4.00;;
71503;SDS011;59323;50.874;7.028;2024-02-04T00:34:41;7.40;;;2.90;;
71503;SDS011;59323;50.874;7.028;2024-02-04T00:37:06;8.17;;;2.97;;
71503;SDS011;59323;50.874;7.028;2024-02-04T00:39:32;6.22;;;2.55;;
71503;SDS011;59323;50.874;7.028;2024-02-04T00:41:57;6.17;;;2.60;;
71503;SDS011;59323;50.874;7.028;2024-02-04T00:44:25;5.78;;;1.95;;
71503;SDS011;59323;50.874;7.028;2024-02-04T00:46:52;4.60;;;1.80;;
71503;SDS011;59323;50.874;7.028;2024-02-04T00:49:17;4.93;;;1.57;;
71503;SDS011;59323;50.874;7.028;2024-02-04T00:51:46;4.07;;;1.60;;
71503;SDS011;59323;50.874;7.028;2024-02-04T00:54:11;4.82;;;1.45;;
71503;SDS011;59323;50.874;7.028;2024-02-04T00:56:36;4.90;;;1.53;;
71503;SDS011;59323;50.874;7.028;2024-02-04T00:59:03;3.45;;;1.30;;
71503;SDS011;59323;50.874;7.028;2024-02-04T01:01:30;3.73;;;1.40;;
71503;SDS011;59323;50.874;7.028;2024-02-04T01:03:56;5.35;;;1.92;;
71503;SDS011;59323;50.874;7.028;2024-02-04T01:06:21;4.80;;;1.80;;
71503;SDS011;59323;50.874;7.028;2024-02-04T01:08:46;3.90;;;1.77;;
71503;SDS011;59323;50.874;7.028;2024-02-04T01:11:12;6.47;;;2.00;;
71503;SDS011;59323;50.874;7.028;2024-02-04T01:13:37;5.23;;;1.67;;
71503;SDS011;59323;50.874;7.028;2024-02-04T01:16:03;3.80;;;1.80;;
71503;SDS011;59323;50.874;7.028;2024-02-04T01:18:28;4.85;;;1.33;;
71503;SDS011;59323;50.874;7.028;2024-02-04T01:20:55;2.83;;;1.20;;
71503;SDS011;59323;50.874;7.028;2024-02-04T01:23:20;2.67;;;1.20;;
71503;SDS011;59323;50.874;7.028;2024-02-04T01:25:48;2.23;;;0.57;;
71503;SDS011;59323;50.874;7.028;2024-02-04T01:28:16;3.40;;;0.80;;
71503;SDS011;59323;50.874;7.028;2024-02-04T01:30:41;2.03;;;0.63;;
71503;SDS011;59323;50.874;7.028;2024-02-04T01:33:07;1.77;;;0.60;;
71503;SDS011;59323;50.874;7.028;2024-02-04T01:35:32;1.03;;;0.40;;
71503;SDS011;59323;50.874;7.028;2024-02-04T01:37:57;1.63;;;0.47;;
71503;SDS011;59323;50.874;7.028;2024-02-04T01:40:23;0.80;;;0.40;;
71503;SDS011;59323;50.874;7.028;2024-02-04T01:42:48;1.30;;;0.50;;
71503;SDS011;59323;50.874;7.028;2024-02-04T01:45:13;1.50;;;0.40;;
71503;SDS011;59323;50.874;7.028;2024-02-04T01:47:39;1.43;;;0.40;;
71503;SDS011;59323;50.874;7.028;2024-02-04T01:50:04;1.17;;;0.40;;
71503;SDS011;59323;50.874;7.028;2024-02-04T01:52:34;1.45;;;0.50;;
71503;SDS011;59323;50.874;7.028;2024-02-04T01:55:03;2.15;;;0.50;;
71503;SDS011;59323;50.874;7.028;2024-02-04T01:57:32;1.90;;;0.38;;
71503;SDS011;59323;50.874;7.028;2024-02-04T02:00:00;1.00;;;0.50;;
71503;SDS011;59323;50.874;7.028;2024-02-04T02:02:25;1.97;;;0.40;;
71503;SDS011;59323;50.874;7.028;2024-02-04T02:04:51;2.45;;;0.47;;
71503;SDS011;59323;50.874;7.028;2024-02-04T02:07:17;0.90;;;0.50;;
71503;SDS011;59323;50.874;7.028;2024-02-04T02:09:45;1.70;;;0.50;;
71503;SDS011;59323;50.874;7.028;2024-02-04T02:12:58;1.88;;;0.40;;
71503;SDS011;59323;50.874;7.028;2024-02-04T02:15:27;0.70;;;0.30;;
71503;SDS011;59323;50.874;7.028;2024-02-04T02:18:02;1.00;;;0.40;;
71503;SDS011;59323;50.874;7.028;2024-02-04T02:20:32;1.25;;;0.40;;
71503;SDS011;59323;50.874;7.028;2024-02-04T02:23:21;1.20;;;0.40;;
71503;SDS011;59323;50.874;7.028;2024-02-04T02:25:50;1.48;;;0.50;;
71503;SDS011;59323;50.874;7.028;2024-02-04T02:28:16;2.23;;;0.67;;
71503;SDS011;59323;50.874;7.028;2024-02-04T02:30:42;1.80;;;0.80;;
71503;SDS011;59323;50.874;7.028;2024-02-04T02:33:09;1.88;;;0.70;;
71503;SDS011;59323;50.874;7.028;2024-02-04T02:35:35;1.63;;;0.70;;
71503;SDS011;59323;50.874;7.028;2024-02-04T02:38:10;1.37;;;0.50;;
71503;SDS011;59323;50.874;7.028;2024-02-04T02:40:40;2.50;;;0.70;;
71503;SDS011;59323;50.874;7.028;2024-02-04T02:43:07;2.53;;;0.90;;
71503;SDS011;59323;50.874;7.028;2024-02-04T02:45:36;2.47;;;0.95;;
71503;SDS011;59323;50.874;7.028;2024-02-04T02:48:08;2.57;;;1.30;;
71503;SDS011;59323;50.874;7.028;2024-02-04T02:50:38;4.40;;;1.45;;
71503;SDS011;59323;50.874;7.028;2024-02-04T02:53:04;4.53;;;1.33;;
71503;SDS011;59323;50.874;7.028;2024-02-04T02:55:29;3.70;;;1.60;;
71503;SDS011;59323;50.874;7.028;2024-02-04T02:57:54;3.20;;;1.40;;
71503;SDS011;59323;50.874;7.028;2024-02-04T03:00:22;4.50;;;1.37;;
71503;SDS011;59323;50.874;7.028;2024-02-04T03:02:50;3.80;;;1.50;;
71503;SDS011;59323;50.874;7.028;2024-02-04T03:05:15;5.57;;;2.20;;
71503;SDS011;59323;50.874;7.028;2024-02-04T03:07:41;4.63;;;1.73;;
71503;SDS011;59323;50.874;7.028;2024-02-04T03:10:07;4.20;;;1.30;;
71503;SDS011;59323;50.874;7.028;2024-02-04T03:12:33;5.30;;;1.70;;
71503;SDS011;59323;50.874;7.028;2024-02-04T03:14:59;7.23;;;2.10;;
71503;SDS011;59323;50.874;7.028;2024-02-04T03:17:26;8.15;;;2.08;;
71503;SDS011;59323;50.874;7.028;2024-02-04T03:19:54;6.77;;;2.20;;
71503;SDS011;59323;50.874;7.028;2024-02-04T03:22:22;6.18;;;2.13;;
71503;SDS011;59323;50.874;7.028;2024-02-04T03:24:47;5.57;;;2.07;;
71503;SDS011;59323;50.874;7.028;2024-02-04T03:27:13;5.13;;;1.85;;
71503;SDS011;59323;50.874;7.028;2024-02-04T03:29:38;5.70;;;2.43;;
71503;SDS011;59323;50.874;7.028;2024-02-04T03:32:04;6.47;;;2.15;;
71503;SDS011;59323;50.874;7.028;2024-02-04T03:34:30;7.13;;;2.30;;
71503;SDS011;59323;50.874;7.028;2024-02-04T03:36:57;4.72;;;1.73;;
71503;SDS011;59323;50.874;7.028;2024-02-04T03:39:23;6.30;;;2.47;;
71503;SDS011;59323;50.874;7.028;2024-02-04T03:41:48;5.80;;;2.43;;
71503;SDS011;59323;50.874;7.028;2024-02-04T03:44:13;7.30;;;2.70;;
71503;SDS011;59323;50.874;7.028;2024-02-04T03:46:41;6.15;;;2.10;;
71503;SDS011;59323;50.874;7.028;2024-02-04T03:49:07;6.70;;;2.23;;
71503;SDS011;59323;50.874;7.028;2024-02-04T03:51:35;7.43;;;2.72;;
71503;SDS011;59323;50.874;7.028;2024-02-04T03:54:00;7.10;;;2.40;;
71503;SDS011;59323;50.874;7.028;2024-02-04T03:56:25;11.17;;;3.20;;
71503;SDS011;59323;50.874;7.028;2024-02-04T03:58:51;9.67;;;3.07;;
71503;SDS011;59323;50.874;7.028;2024-02-04T04:01:16;9.40;;;3.47;;
71503;SDS011;59323;50.874;7.028;2024-02-04T04:03:42;7.60;;;2.80;;
71503;SDS011;59323;50.874;7.028;2024-02-04T04:06:08;8.32;;;2.70;;
71503;SDS011;59323;50.874;7.028;2024-02-04T04:08:34;6.55;;;2.60;;
71503;SDS011;59323;50.874;7.028;2024-02-04T04:11:03;9.00;;;2.60;;
71503;SDS011;59323;50.874;7.028;2024-02-04T04:13:34;6.97;;;2.53;;
71503;SDS011;59323;50.874;7.028;2024-02-04T04:16:03;6.70;;;2.53;;
71503;SDS011;59323;50.874;7.028;2024-02-04T04:18:31;6.57;;;2.08;;
71503;SDS011;59323;50.874;7.028;2024-02-04T04:20:57;6.43;;;2.13;;
71503;SDS011;59323;50.874;7.028;2024-02-04T04:23:24;5.80;;;1.90;;
71503;SDS011;59323;50.874;7.028;2024-02-04T04:25:50;5.03;;;1.70;;
71503;SDS011;59323;50.874;7.028;2024-02-04T04:28:15;5.73;;;1.93;;
71503;SDS011;59323;50.874;7.028;2024-02-04T04:30:40;5.57;;;1.90;;
71503;SDS011;59323;50.874;7.028;2024-02-04T04:33:08;4.50;;;1.50;;
71503;SDS011;59323;50.874;7.028;2024-02-04T04:35:37;5.07;;;1.50;;
71503;SDS011;59323;50.874;7.028;2024-02-04T04:38:02;4.60;;;1.43;;
71503;SDS011;59323;50.874;7.028;2024-02-04T04:40:27;5.73;;;1.70;;
71503;SDS011;59323;50.874;7.028;2024-02-04T04:42:53;5.13;;;1.40;;
71503;SDS011;59323;50.874;7.028;2024-02-04T04:45:18;5.10;;;1.40;;
71503;SDS011;59323;50.874;7.028;2024-02-04T04:47:43;5.13;;;1.70;;
71503;SDS011;59323;50.874;7.028;2024-02-04T04:50:11;4.35;;;1.52;;
71503;SDS011;59323;50.874;7.028;2024-02-04T04:52:36;4.90;;;1.83;;
71503;SDS011;59323;50.874;7.028;2024-02-04T04:55:04;5.20;;;2.30;;
71503;SDS011;59323;50.874;7.028;2024-02-04T04:57:30;5.90;;;1.93;;
71503;SDS011;59323;50.874;7.028;2024-02-04T04:59:55;4.33;;;1.60;;
71503;SDS011;59323;50.874;7.028;2024-02-04T05:02:26;5.22;;;1.52;;
71503;SDS011;59323;50.874;7.028;2024-02-04T05:04:51;6.25;;;1.70;;
71503;SDS011;59323;50.874;7.028;2024-02-04T05:07:16;5.27;;;1.87;;
71503;SDS011;59323;50.874;7.028;2024-02-04T05:09:42;5.83;;;1.80;;
71503;SDS011;59323;50.874;7.028;2024-02-04T05:12:08;4.57;;;1.50;;
71503;SDS011;59323;50.874;7.028;2024-02-04T05:14:34;7.57;;;2.08;;
71503;SDS011;59323;50.874;7.028;2024-02-04T05:16:59;4.63;;;1.87;;
71503;SDS011;59323;50.874;7.028;2024-02-04T05:19:27;5.47;;;1.80;;
71503;SDS011;59323;50.874;7.028;2024-02-04T05:21:52;6.47;;;2.27;;
71503;SDS011;59323;50.874;7.028;2024-02-04T05:24:20;8.27;;;1.97;;
71503;SDS011;59323;50.874;7.028;2024-02-04T05:26:45;6.90;;;2.25;;
71503;SDS011;59323;50.874;7.028;2024-02-04T05:29:11;6.87;;;2.03;;
71503;SDS011;59323;50.874;7.028;2024-02-04T05:31:42;5.90;;;1.80;;
71503;SDS011;59323;50.874;7.028;2024-02-04T05:34:08;6.30;;;2.30;;
71503;SDS011;59323;50.874;7.028;2024-02-04T05:36:34;6.82;;;2.30;;
71503;SDS011;59323;50.874;7.028;2024-02-04T05:39:10;6.70;;;2.07;;
71503;SDS011;59323;50.874;7.028;2024-02-04T05:41:36;6.05;;;1.77;;
71503;SDS011;59323;50.874;7.028;2024-02-04T05:44:01;5.43;;;2.10;;
71503;SDS011;59323;50.874;7.028;2024-02-04T05:46:27;5.68;;;1.88;;
71503;SDS011;59323;50.874;7.028;2024-02-04T05:48:53;4.80;;;1.83;;
71503;SDS011;59323;50.874;7.028;2024-02-04T05:51:18;6.20;;;2.00;;
71503;SDS011;59323;50.874;7.028;2024-02-04T05:53:46;5.63;;;2.13;;
71503;SDS011;59323;50.874;7.028;2024-02-04T05:56:11;4.10;;;1.60;;
71503;SDS011;59323;50.874;7.028;2024-02-04T05:58:37;6.40;;;2.60;;
71503;SDS011;59323;50.874;7.028;2024-02-04T06:01:02;6.97;;;2.40;;
71503;SDS011;59323;50.874;7.028;2024-02-04T06:03:30;8.30;;;3.00;;
71503;SDS011;59323;50.874;7.028;2024-02-04T06:05:55;8.13;;;2.70;;
71503;SDS011;59323;50.874;7.028;2024-02-04T06:08:21;6.50;;;2.67;;
71503;SDS011;59323;50.874;7.028;2024-02-04T06:10:49;8.70;;;3.63;;
71503;SDS011;59323;50.874;7.028;2024-02-04T06:13:14;8.73;;;3.90;;
71503;SDS011;59323;50.874;7.028;2024-02-04T06:15:39;13.20;;;3.78;;
71503;SDS011;59323;50.874;7.028;2024-02-04T06:18:05;9.70;;;3.37;;
71503;SDS011;59323;50.874;7.028;2024-02-04T06:20:35;13.35;;;4.43;;
71503;SDS011;59323;50.874;7.028;2024-02-04T06:23:00;9.80;;;3.73;;
71503;SDS011;59323;50.874;7.028;2024-02-04T06:25:26;9.13;;;2.97;;
71503;SDS011;59323;50.874;7.028;2024-02-04T06:27:51;10.33;;;3.77;;
71503;SDS011;59323;50.874;7.028;2024-02-04T06:30:19;9.48;;;3.38;;
71503;SDS011;59323;50.874;7.028;2024-02-04T06:32:44;8.07;;;3.17;;
71503;SDS011;59323;50.874;7.028;2024-02-04T06:35:12;9.85;;;3.20;;
71503;SDS011;59323;50.874;7.028;2024-02-04T06:37:37;8.47;;;2.40;;
71503;SDS011;59323;50.874;7.028;2024-02-04T06:40:03;6.93;;;2.00;;
71503;SDS011;59323;50.874;7.028;2024-02-04T06:42:29;6.95;;;2.47;;
71503;SDS011;59323;50.874;7.028;2024-02-04T06:44:54;9.13;;;2.20;;
71503;SDS011;59323;50.874;7.028;2024-02-04T06:47:19;5.30;;;1.83;;
71503;SDS011;59323;50.874;7.028;2024-02-04T06:49:45;6.40;;;1.90;;
71503;SDS011;59323;50.874;7.028;2024-02-04T06:52:12;5.57;;;2.05;;
71503;SDS011;59323;50.874;7.028;2024-02-04T06:54:38;5.63;;;2.10;;
71503;SDS011;59323;50.874;7.028;2024-02-04T06:57:08;6.17;;;2.30;;
71503;SDS011;59323;50.874;7.028;2024-02-04T06:59:34;6.50;;;2.50;;
71503;SDS011;59323;50.874;7.028;2024-02-04T07:01:59;5.72;;;2.20;;
71503;SDS011;59323;50.874;7.028;2024-02-04T07:04:24;5.60;;;2.00;;
71503;SDS011;59323;50.874;7.028;2024-02-04T07:06:50;5.83;;;1.87;;
71503;SDS011;59323;50.874;7.028;2024-02-04T07:09:16;5.82;;;2.05;;
71503;SDS011;59323;50.874;7.028;2024-02-04T07:11:42;4.17;;;1.23;;
71503;SDS011;59323;50.874;7.028;2024-02-04T07:14:07;3.93;;;1.37;;
71503;SDS011;59323;50.874;7.028;2024-02-04T07:16:33;4.65;;;1.33;;
71503;SDS011;59323;50.874;7.028;2024-02-04T07:18:58;5.70;;;1.60;;
71503;SDS011;59323;50.874;7.028;2024-02-04T07:21:24;3.72;;;1.33;;
71503;SDS011;59323;50.874;7.028;2024-02-04T07:23:54;5.13;;;1.47;;
71503;SDS011;59323;50.874;7.028;2024-02-04T07:26:21;3.10;;;1.23;;
71503;SDS011;59323;50.874;7.028;2024-02-04T07:28:47;3.70;;;0.80;;
71503;SDS011;59323;50.874;7.028;2024-02-04T07:31:14;3.08;;;0.90;;
71503;SDS011;59323;50.874;7.028;2024-02-04T07:33:42;3.60;;;0.95;;
71503;SDS011;59323;50.874;7.028;2024-02-04T07:36:10;2.33;;;0.77;;
71503;SDS011;59323;50.874;7.028;2024-02-04T07:38:36;2.38;;;0.70;;
71503;SDS011;59323;50.874;7.028;2024-02-04T07:41:04;2.05;;;0.63;;
71503;SDS011;59323;50.874;7.028;2024-02-04T07:43:30;1.37;;;0.40;;
71503;SDS011;59323;50.874;7.028;2024-02-04T07:45:58;2.45;;;0.52;;
71503;SDS011;59323;50.874;7.028;2024-02-04T07:48:23;1.10;;;0.50;;
71503;SDS011;59323;50.874;7.028;2024-02-04T07:50:48;2.50;;;0.70;;
71503;SDS011;59323;50.874;7.028;2024-02-04T07:53:17;2.13;;;0.50;;
71503;SDS011;59323;50.874;7.028;2024-02-04T07:55:51;1.70;;;0.30;;
71503;SDS011;59323;50.874;7.028;2024-02-04T07:58:18;1.88;;;0.70;;
71503;SDS011;59323;50.874;7.028;2024-02-04T08:00:44;1.23;;;0.50;;
71503;SDS011;59323;50.874;7.028;2024-02-04T08:03:09;2.45;;;0.55;;
71503;SDS011;59323;50.874;7.028;2024-02-04T08:05:34;1.43;;;0.50;;
71503;SDS011;59323;50.874;7.028;2024-02-04T08:08:03;1.00;;;0.45;;
71503;SDS011;59323;50.874;7.028;2024-02-04T08:10:28;1.20;;;0.40;;
71503;SDS011;59323;50.874;7.028;2024-02-04T08:12:54;2.80;;;0.70;;
71503;SDS011;59323;50.874;7.028;2024-02-04T08:15:19;1.73;;;0.60;;
71503;SDS011;59323;50.874;7.028;2024-02-04T08:17:47;1.83;;;0.60;;
71503;SDS011;59323;50.874;7.028;2024-02-04T08:20:14;3.28;;;0.80;;
71503;SDS011;59323;50.874;7.028;2024-02-04T08:22:39;2.38;;;1.00;;
71503;SDS011;59323;50.874;7.028;2024-02-04T08:25:04;1.63;;;0.60;;
71503;SDS011;59323;50.874;7.028;2024-02-04T08:27:30;1.27;;;0.60;;
71503;SDS011;59323;50.874;7.028;2024-02-04T08:29:59;2.22;;;0.55;;
71503;SDS011;59323;50.874;7.028;2024-02-04T08:32:26;1.92;;;0.65;;
71503;SDS011;59323;50.874;7.028;2024-02-04T08:34:56;2.23;;;0.90;;
71503;SDS011;59323;50.874;7.028;2024-02-04T08:37:22;2.15;;;0.88;;
71503;SDS011;59323;50.874;7.028;2024-02-04T08:39:47;2.70;;;0.90;;
71503;SDS011;59323;50.874;7.028;2024-02-04T08:42:12;2.80;;;0.90;;
71503;SDS011;59323;50.874;7.028;2024-02-04T08:44:38;2.00;;;0.80;;
71503;SDS011;59323;50.874;7.028;2024-02-04T08:47:22;2.25;;;0.70;;
71503;SDS011;59323;50.874;7.028;2024-02-04T08:51:20;2.22;;;0.70;;
71503;SDS011;59323;50.874;7.028;2024-02-04T09:07:52;4.65;;;1.20;;
71503;SDS011;59323;50.874;7.028;2024-02-04T09:10:20;3.57;;;1.40;;
71503;SDS011;59323;50.874;7.028;2024-02-04T09:12:47;3.60;;;1.17;;
71503;SDS011;59323;50.874;7.028;2024-02-04T09:15:13;4.28;;;1.20;;
71503;SDS011;59323;50.874;7.028;2024-02-04T09:17:40;4.73;;;1.43;;
71503;SDS011;59323;50.874;7.028;2024-02-04T09:20:08;3.85;;;1.40;;
71503;SDS011;59323;50.874;7.028;2024-02-04T09:22:36;5.80;;;1.50;;
71503;SDS011;59323;50.874;7.028;2024-02-04T09:25:02;4.43;;;1.50;;
71503;SDS011;59323;50.874;7.028;2024-02-04T09:27:28;3.28;;;1.13;;
71503;SDS011;59323;50.874;7.028;2024-02-04T09:29:53;3.33;;;1.27;;
71503;SDS011;59323;50.874;7.028;2024-02-04T09:32:20;3.13;;;1.25;;
71503;SDS011;59323;50.874;7.028;2024-02-04T09:34:45;2.63;;;0.80;;
71503;SDS011;59323;50.874;7.028;2024-02-04T09:37:11;4.97;;;0.90;;
71503;SDS011;59323;50.874;7.028;2024-02-04T09:39:36;2.27;;;0.70;;
71503;SDS011;59323;50.874;7.028;2024-02-04T09:42:04;2.07;;;0.90;;
71503;SDS011;59323;50.874;7.028;2024-02-04T09:44:29;1.67;;;0.82;;
71503;SDS011;59323;50.874;7.028;2024-02-04T09:46:57;2.00;;;0.90;;
71503;SDS011;59323;50.874;7.028;2024-02-04T09:49:24;2.53;;;1.00;;
71503;SDS011;59323;50.874;7.028;2024-02-04T09:51:51;2.67;;;0.80;;
71503;SDS011;59323;50.874;7.028;2024-02-04T09:54:17;1.57;;;0.70;;
71503;SDS011;59323;50.874;7.028;2024-02-04T09:56:46;2.70;;;0.90;;
71503;SDS011;59323;50.874;7.028;2024-02-04T09:59:16;3.20;;;0.90;;
71503;SDS011;59323;50.874;7.028;2024-02-04T10:01:41;3.60;;;0.93;;
71503;SDS011;59323;50.874;7.028;2024-02-04T10:04:07;1.73;;;0.70;;
71503;SDS011;59323;50.874;7.028;2024-02-04T10:06:32;3.97;;;1.33;;
71503;SDS011;59323;50.874;7.028;2024-02-04T10:08:57;2.37;;;1.00;;
71503;SDS011;59323;50.874;7.028;2024-02-04T10:11:23;2.47;;;0.90;;
71503;SDS011;59323;50.874;7.028;2024-02-04T10:13:50;2.60;;;1.00;;
71503;SDS011;59323;50.874;7.028;2024-02-04T10:16:17;2.33;;;0.80;;
71503;SDS011;59323;50.874;7.028;2024-02-04T10:18:46;4.03;;;0.83;;
71503;SDS011;59323;50.874;7.028;2024-02-04T10:21:22;2.00;;;0.70;;
71503;SDS011;59323;50.874;7.028;2024-02-04T10:23:49;1.98;;;0.55;;
71503;SDS011;59323;50.874;7.028;2024-02-04T10:26:20;2.10;;;0.88;;
71503;SDS011;59323;50.874;7.028;2024-02-04T10:28:49;2.30;;;0.77;;
71503;SDS011;59323;50.874;7.028;2024-02-04T10:31:14;2.38;;;0.85;;
71503;SDS011;59323;50.874;7.028;2024-02-04T10:33:43;2.60;;;0.80;;
71503;SDS011;59323;50.874;7.028;2024-02-04T10:36:08;1.50;;;0.60;;
71503;SDS011;59323;50.874;7.028;2024-02-04T10:38:33;2.50;;;0.93;;
71503;SDS011;59323;50.874;7.028;2024-02-04T10:41:00;2.90;;;0.80;;
71503;SDS011;59323;50.874;7.028;2024-02-04T10:43:32;2.25;;;0.70;;
71503;SDS011;59323;50.874;7.028;2024-02-04T10:49:00;2.53;;;1.00;;
71503;SDS011;59323;50.874;7.028;2024-02-04T10:51:28;2.95;;;1.10;;
71503;SDS011;59323;50.874;7.028;2024-02-04T10:53:56;3.03;;;1.20;;
71503;SDS011;59323;50.874;7.028;2024-02-04T10:58:54;5.60;;;1.83;;
71503;SDS011;59323;50.874;7.028;2024-02-04T11:01:21;3.17;;;1.25;;
71503;SDS011;59323;50.874;7.028;2024-02-04T11:03:47;5.13;;;1.50;;
71503;SDS011;59323;50.874;7.028;2024-02-04T11:06:15;4.73;;;1.23;;
71503;SDS011;59323;50.874;7.028;2024-02-04T11:08:41;5.38;;;1.30;;
71503;SDS011;59323;50.874;7.028;2024-02-04T11:11:07;2.75;;;1.00;;
71503;SDS011;59323;50.874;7.028;2024-02-04T11:13:32;1.80;;;0.70;;
71503;SDS011;59323;50.874;7.028;2024-02-04T11:16:01;2.40;;;0.90;;
71503;SDS011;59323;50.874;7.028;2024-02-04T11:26:25;1.95;;;1.00;;
71503;SDS011;59323;50.874;7.028;2024-02-04T11:28:51;2.03;;;0.90;;
71503;SDS011;59323;50.874;7.028;2024-02-04T11:31:17;1.80;;;0.88;;
71503;SDS011;59323;50.874;7.028;2024-02-04T11:33:42;1.67;;;0.77;;
71503;SDS011;59323;50.874;7.028;2024-02-04T11:40:18;1.63;;;0.88;;
71503;SDS011;59323;50.874;7.028;2024-02-04T11:50:54;1.73;;;0.73;;
71503;SDS011;59323;50.874;7.028;2024-02-04T11:54:35;1.90;;;0.57;;
71503;SDS011;59323;50.874;7.028;2024-02-04T11:57:31;1.92;;;0.88;;
71503;SDS011;59323;50.874;7.028;2024-02-04T12:07:39;2.05;;;0.70;;
71503;SDS011;59323;50.874;7.028;2024-02-04T12:11:10;1.70;;;0.80;;
71503;SDS011;59323;50.874;7.028;2024-02-04T12:14:46;2.88;;;1.02;;
71503;SDS011;59323;50.874;7.028;2024-02-04T12:17:12;3.13;;;0.97;;
71503;SDS011;59323;50.874;7.028;2024-02-04T12:19:38;3.17;;;0.90;;
71503;SDS011;59323;50.874;7.028;2024-02-04T12:22:04;4.33;;;1.03;;
71503;SDS011;59323;50.874;7.028;2024-02-04T12:24:34;2.53;;;0.90;;
71503;SDS011;59323;50.874;7.028;2024-02-04T12:27:00;3.47;;;0.80;;
71503;SDS011;59323;50.874;7.028;2024-02-04T12:29:28;2.95;;;1.20;;
71503;SDS011;59323;50.874;7.028;2024-02-04T12:32:02;3.47;;;1.40;;
71503;SDS011;59323;50.874;7.028;2024-02-04T12:34:28;3.10;;;1.35;;
71503;SDS011;59323;50.874;7.028;2024-02-04T12:36:58;2.97;;;1.30;;
71503;SDS011;59323;50.874;7.028;2024-02-04T12:39:27;2.73;;;1.17;;
71503;SDS011;59323;50.874;7.028;2024-02-04T12:41:53;3.83;;;1.20;;
71503;SDS011;59323;50.874;7.028;2024-02-04T12:44:19;4.07;;;0.90;;
71503;SDS011;59323;50.874;7.028;2024-02-04T12:46:49;2.80;;;0.90;;
71503;SDS011;59323;50.874;7.028;2024-02-04T12:49:21;2.47;;;0.90;;
71503;SDS011;59323;50.874;7.028;2024-02-04T12:51:47;2.83;;;0.80;;
71503;SDS011;59323;50.874;7.028;2024-02-04T12:54:12;1.97;;;0.80;;
71503;SDS011;59323;50.874;7.028;2024-02-04T12:56:47;2.70;;;0.93;;
71503;SDS011;59323;50.874;7.028;2024-02-04T13:01:54;1.53;;;0.70;;
71503;SDS011;59323;50.874;7.028;2024-02-04T13:04:21;2.10;;;0.88;;
71503;SDS011;59323;50.874;7.028;2024-02-04T13:06:47;1.80;;;0.88;;
71503;SDS011;59323;50.874;7.028;2024-02-04T13:09:14;3.53;;;0.90;;
71503;SDS011;59323;50.874;7.028;2024-02-04T13:11:40;1.95;;;0.68;;
71503;SDS011;59323;50.874;7.028;2024-02-04T13:14:08;1.98;;;0.90;;
71503;SDS011;59323;50.874;7.028;2024-02-04T13:16:34;2.90;;;0.90;;
71503;SDS011;59323;50.874;7.028;2024-02-04T13:19:01;2.42;;;0.85;;
71503;SDS011;59323;50.874;7.028;2024-02-04T13:21:28;2.90;;;1.20;;
71503;SDS011;59323;50.874;7.028;2024-02-04T13:23:58;3.30;;;1.10;;
71503;SDS011;59323;50.874;7.028;2024-02-04T13:26:23;3.50;;;1.38;;
71503;SDS011;59323;50.874;7.028;2024-02-04T13:28:49;4.17;;;1.23;;
71503;SDS011;59323;50.874;7.028;2024-02-04T13:31:16;3.60;;;1.53;;
71503;SDS011;59323;50.874;7.028;2024-02-04T13:33:42;3.13;;;1.20;;
71503;SDS011;59323;50.874;7.028;2024-02-04T13:36:07;5.97;;;1.70;;
71503;SDS011;59323;50.874;7.028;2024-02-04T13:38:38;4.47;;;1.40;;
71503;SDS011;59323;50.874;7.028;2024-02-04T13:41:06;4.25;;;1.40;;
71503;SDS011;59323;50.874;7.028;2024-02-04T13:43:33;4.10;;;1.45;;
71503;SDS011;59323;50.874;7.028;2024-02-04T13:45:59;3.43;;;1.40;;
71503;SDS011;59323;50.874;7.028;2024-02-04T13:48:25;3.72;;;1.20;;
71503;SDS011;59323;50.874;7.028;2024-02-04T13:50:53;2.80;;;1.20;;
71503;SDS011;59323;50.874;7.028;2024-02-04T13:53:21;4.57;;;1.50;;
71503;SDS011;59323;50.874;7.028;2024-02-04T13:55:49;2.88;;;1.20;;
71503;SDS011;59323;50.874;7.028;2024-02-04T13:58:14;3.00;;;1.43;;
71503;SDS011;59323;50.874;7.028;2024-02-04T14:00:40;3.90;;;1.33;;
71503;SDS011;59323;50.874;7.028;2024-02-04T14:03:06;3.88;;;1.40;;
71503;SDS011;59323;50.874;7.028;2024-02-04T14:05:32;2.77;;;1.13;;
71503;SDS011;59323;50.874;7.028;2024-02-04T14:07:58;3.05;;;1.10;;
71503;SDS011;59323;50.874;7.028;2024-02-04T14:10:23;3.40;;;1.37;;
71503;SDS011;59323;50.874;7.028;2024-02-04T14:12:48;3.67;;;1.57;;
71503;SDS011;59323;50.874;7.028;2024-02-04T14:15:16;4.47;;;1.55;;
71503;SDS011;59323;50.874;7.028;2024-02-04T14:17:42;4.87;;;1.73;;
71503;SDS011;59323;50.874;7.028;2024-02-04T14:20:07;3.83;;;1.90;;
71503;SDS011;59323;50.874;7.028;2024-02-04T14:22:34;5.75;;;1.95;;
71503;SDS011;59323;50.874;7.028;2024-02-04T14:24:59;4.97;;;1.77;;
71503;SDS011;59323;50.874;7.028;2024-02-04T14:27:25;3.53;;;1.37;;
71503;SDS011;59323;50.874;7.028;2024-02-04T14:29:53;5.43;;;1.85;;
71503;SDS011;59323;50.874;7.028;2024-02-04T14:32:21;4.20;;;1.65;;
71503;SDS011;59323;50.874;7.028;2024-02-04T14:34:46;4.83;;;1.60;;
71503;SDS011;59323;50.874;7.028;2024-02-04T14:37:12;4.57;;;1.83;;
71503;SDS011;59323;50.874;7.028;2024-02-04T14:39:38;3.17;;;1.33;;
71503;SDS011;59323;50.874;7.028;2024-02-04T14:42:03;3.80;;;1.63;;
71503;SDS011;59323;50.874;7.028;2024-02-04T14:44:29;3.70;;;1.50;;
71503;SDS011;59323;50.874;7.028;2024-02-04T14:46:59;4.85;;;1.90;;
71503;SDS011;59323;50.874;7.028;2024-02-04T14:49:27;4.60;;;1.80;;
71503;SDS011;59323;50.874;7.028;2024-02-04T14:51:53;3.85;;;1.40;;
71503;SDS011;59323;50.874;7.028;2024-02-04T14:54:18;3.87;;;1.50;;
71503;SDS011;59323;50.874;7.028;2024-02-04T14:56:43;5.10;;;1.50;;
71503;SDS011;59323;50.874;7.028;2024-02-04T14:59:11;4.88;;;1.50;;
71503;SDS011;59323;50.874;7.028;2024-02-04T15:01:37;3.30;;;1.20;;
71503;SDS011;59323;50.874;7.028;2024-02-04T15:04:03;3.35;;;1.50;;
71503;SDS011;59323;50.874;7.028;2024-02-04T15:06:29;3.22;;;1.40;;
71503;SDS011;59323;50.874;7.028;2024-02-04T15:08:59;5.32;;;1.85;;
71503;SDS011;59323;50.874;7.028;2024-02-04T15:11:32;5.43;;;1.73;;
71503;SDS011;59323;50.874;7.028;2024-02-04T15:14:00;4.22;;;1.67;;
71503;SDS011;59323;50.874;7.028;2024-02-04T15:16:25;6.40;;;2.42;;
71503;SDS011;59323;50.874;7.028;2024-02-04T15:18:51;7.33;;;2.63;;
71503;SDS011;59323;50.874;7.028;2024-02-04T15:21:19;6.60;;;2.75;;
71503;SDS011;59323;50.874;7.028;2024-02-04T15:23:45;6.57;;;2.80;;
71503;SDS011;59323;50.874;7.028;2024-02-04T15:26:11;6.78;;;2.67;;
71503;SDS011;59323;50.874;7.028;2024-02-04T15:28:37;5.35;;;2.30;;
71503;SDS011;59323;50.874;7.028;2024-02-04T15:31:04;6.53;;;2.87;;
71503;SDS011;59323;50.874;7.028;2024-02-04T15:33:30;6.80;;;2.63;;
71503;SDS011;59323;50.874;7.028;2024-02-04T15:35:55;6.80;;;2.58;;
71503;SDS011;59323;50.874;7.028;2024-02-04T15:38:21;7.53;;;2.20;;
71503;SDS011;59323;50.874;7.028;2024-02-04T15:40:46;6.37;;;2.40;;
71503;SDS011;59323;50.874;7.028;2024-02-04T15:43:16;7.88;;;2.50;;
71503;SDS011;59323;50.874;7.028;2024-02-04T15:45:41;6.18;;;2.53;;
71503;SDS011;59323;50.874;7.028;2024-02-04T15:48:07;6.17;;;2.80;;
71503;SDS011;59323;50.874;7.028;2024-02-04T15:50:35;6.05;;;2.60;;
71503;SDS011;59323;50.874;7.028;2024-02-04T15:53:01;6.45;;;2.80;;
71503;SDS011;59323;50.874;7.028;2024-02-04T15:55:27;7.50;;;3.27;;